Time;durP1;ratioP1;P1;durP2;ratioP2;P2;SDS_P1;SDS_P2;PMS_P1;PMS_P2;Temp;Humidity;BMP_temperature;BMP_pressure;BME280_temperature;BME280_humidity;BME280_pressure;Samples;Min_cycle;Max_cycle;Signal;HPM_P1;HPM_P2
2024/01/15 00:03:17;;;;;;;44.83;15.98;;;;;;;;;;8218457;28;20038;-59
2024/01/15 00:07:18;;;;;;;36.55;14.70;;;;;;;;;;8218818;28;20028;-58
2024/01/15 00:11:18;;;;;;;41.35;16.35;;;;;;;;;;8217643;28;20033;-58
2024/01/15 00:15:18;;;;;;;37.65;13.70;;;;;;;;;;8216263;28;20225;-58
2024/01/15 00:19:18;;;;;;;36.75;14.55;;;;;;;;;;8218502;28;20273;-58
2024/01/15 00:23:18;;;;;;;30.35;13.30;;;;;;;;;;8217101;28;20026;-59
2024/01/15 00:27:19;;;;;;;30.48;11.85;;;;;;;;;;8215662;28;20180;-60
2024/01/15 00:31:19;;;;;;;43.85;14.30;;;;;;;;;;8215480;28;20620;-58
2024/01/15 00:35:19;;;;;;;39.35;14.48;;;;;;;;;;8217206;28;20038;-58
2024/01/15 00:39:19;;;;;;;39.40;15.63;;;;;;;;;;8215973;28;20018;-59
2024/01/15 00:43:19;;;;;;;36.22;13.85;;;;;;;;;;8214979;28;20080;-58
2024/01/15 00:47:19;;;;;;;37.00;13.60;;;;;;;;;;8213944;28;20458;-58
2024/01/15 00:51:20;;;;;;;37.05;13.45;;;;;;;;;;8214736;28;20081;-58
2024/01/15 00:55:20;;;;;;;34.00;14.55;;;;;;;;;;8218226;28;20053;-60
2024/01/15 00:59:20;;;;;;;34.00;14.27;;;;;;;;;;8216083;28;20025;-59
2024/01/15 01:03:20;;;;;;;41.08;14.43;;;;;;;;;;8213712;28;20526;-59
2024/01/15 01:07:21;;;;;;;36.90;13.88;;;;;;;;;;8217125;28;20125;-59
2024/01/15 01:11:21;;;;;;;30.80;12.65;;;;;;;;;;8220009;28;20065;-60
2024/01/15 01:15:21;;;;;;;35.63;14.55;;;;;;;;;;8231062;28;20033;-60
2024/01/15 01:19:21;;;;;;;33.25;14.25;;;;;;;;;;8232051;28;20058;-60
2024/01/15 01:23:21;;;;;;;36.13;12.68;;;;;;;;;;8233284;28;20018;-59
2024/01/15 01:27:22;;;;;;;33.70;13.50;;;;;;;;;;8235138;28;20085;-59
2024/01/15 01:31:23;;;;;;;35.17;14.52;;;;;;;;;;8234917;28;20798;-58
2024/01/15 01:35:23;;;;;;;33.22;12.93;;;;;;;;;;8239711;28;20029;-60
2024/01/15 01:39:23;;;;;;;30.10;12.98;;;;;;;;;;8236165;28;20053;-60
2024/01/15 01:43:23;;;;;;;34.75;12.57;;;;;;;;;;8236241;28;20588;-59
2024/01/15 01:47:26;;;;;;;31.52;11.63;;;;;;;;;;8233976;28;20668;-59
2024/01/15 01:51:26;;;;;;;33.05;13.88;;;;;;;;;;8234632;28;20053;-59
2024/01/15 01:55:27;;;;;;;25.17;10.77;;;;;;;;;;8234360;28;20121;-60
2024/01/15 01:59:28;;;;;;;38.20;13.13;;;;;;;;;;8236669;28;20551;-60
2024/01/15 02:03:30;;;;;;;27.55;10.75;;;;;;;;;;8239083;28;20611;-60
2024/01/15 02:07:30;;;;;;;29.00;11.70;;;;;;;;;;8233185;28;20084;-60
2024/01/15 02:11:31;;;;;;;25.45;10.90;;;;;;;;;;8233717;28;20113;-60
2024/01/15 02:15:31;;;;;;;23.95;9.93;;;;;;;;;;8236999;28;20050;-60
2024/01/15 02:19:31;;;;;;;27.73;10.73;;;;;;;;;;8231241;28;20034;-60
2024/01/15 02:23:31;;;;;;;27.23;10.05;;;;;;;;;;8236394;28;20403;-59
2024/01/15 02:27:32;;;;;;;22.77;10.43;;;;;;;;;;8233323;28;20033;-59
2024/01/15 02:31:32;;;;;;;25.83;11.18;;;;;;;;;;8234223;28;20157;-59
2024/01/15 02:35:33;;;;;;;34.25;12.02;;;;;;;;;;8224836;28;20632;-58
2024/01/15 02:39:33;;;;;;;36.30;13.32;;;;;;;;;;8221329;28;20040;-59
2024/01/15 02:43:33;;;;;;;31.70;12.82;;;;;;;;;;8223772;28;20116;-59
2024/01/15 02:47:33;;;;;;;32.20;12.65;;;;;;;;;;8221580;28;20046;-59
2024/01/15 02:51:34;;;;;;;32.35;12.32;;;;;;;;;;8220912;28;20144;-58
2024/01/15 02:55:34;;;;;;;33.65;13.65;;;;;;;;;;8226272;28;20107;-59
2024/01/15 02:59:34;;;;;;;29.98;12.65;;;;;;;;;;8217800;28;20018;-60
2024/01/15 03:03:34;;;;;;;33.63;12.75;;;;;;;;;;8219798;28;20404;-59
2024/01/15 03:07:35;;;;;;;30.50;12.30;;;;;;;;;;8219224;28;20134;-59
2024/01/15 03:11:39;;;;;;;34.75;13.45;;;;;;;;;;8216001;28;20479;-60
2024/01/15 03:15:39;;;;;;;23.55;10.07;;;;;;;;;;8216444;28;20406;-59
2024/01/15 03:19:39;;;;;;;27.20;11.10;;;;;;;;;;8213367;28;20030;-59
2024/01/15 03:23:39;;;;;;;29.02;10.75;;;;;;;;;;8215554;28;20531;-60
2024/01/15 03:27:39;;;;;;;26.50;10.80;;;;;;;;;;8218593;28;20028;-60
2024/01/15 03:31:39;;;;;;;26.33;11.57;;;;;;;;;;8219646;28;20045;-60
2024/01/15 03:35:40;;;;;;;34.45;13.10;;;;;;;;;;8221042;28;20034;-58
2024/01/15 03:39:40;;;;;;;31.17;12.85;;;;;;;;;;8214965;28;20443;-59
2024/01/15 03:43:41;;;;;;;26.83;11.88;;;;;;;;;;8218682;28;20533;-60
2024/01/15 03:47:41;;;;;;;31.10;12.00;;;;;;;;;;8232063;28;20415;-61
2024/01/15 03:51:42;;;;;;;28.80;11.18;;;;;;;;;;8228341;28;20023;-60
2024/01/15 03:55:42;;;;;;;32.22;13.18;;;;;;;;;;8225016;28;20488;-60
2024/01/15 03:59:42;;;;;;;31.67;11.50;;;;;;;;;;8217522;28;20049;-59
2024/01/15 04:03:42;;;;;;;32.30;12.10;;;;;;;;;;8217135;28;20791;-59
2024/01/15 04:07:43;;;;;;;29.35;12.30;;;;;;;;;;8219862;28;20582;-60
2024/01/15 04:11:43;;;;;;;29.92;11.45;;;;;;;;;;8217437;28;20030;-61
2024/01/15 04:15:43;;;;;;;29.38;11.98;;;;;;;;;;8218475;28;20073;-60
2024/01/15 04:19:43;;;;;;;27.73;10.73;;;;;;;;;;8218745;28;20018;-60
2024/01/15 04:23:44;;;;;;;23.45;10.93;;;;;;;;;;8218384;28;20386;-59
2024/01/15 04:27:44;;;;;;;28.23;11.45;;;;;;;;;;8215913;28;20092;-59
2024/01/15 04:31:44;;;;;;;29.52;11.80;;;;;;;;;;8218047;28;20035;-58
2024/01/15 04:35:44;;;;;;;24.92;11.43;;;;;;;;;;8218638;28;20289;-59
2024/01/15 04:39:44;;;;;;;24.65;10.27;;;;;;;;;;8220835;28;20049;-59
2024/01/15 04:43:45;;;;;;;24.30;10.20;;;;;;;;;;8223710;28;20030;-59
2024/01/15 04:47:45;;;;;;;22.10;9.55;;;;;;;;;;8234547;28;20062;-60
2024/01/15 04:51:45;;;;;;;19.55;9.48;;;;;;;;;;8228853;28;20018;-60
2024/01/15 04:55:46;;;;;;;19.27;9.95;;;;;;;;;;8228192;28;20026;-59
2024/01/15 04:59:46;;;;;;;24.30;10.77;;;;;;;;;;8227045;28;20030;-59
2024/01/15 05:03:46;;;;;;;22.85;9.50;;;;;;;;;;8222719;28;20483;-60
2024/01/15 05:07:46;;;;;;;23.55;10.65;;;;;;;;;;8220120;28;20349;-61
2024/01/15 05:11:46;;;;;;;26.90;11.57;;;;;;;;;;8224267;28;20021;-60
2024/01/15 05:15:47;;;;;;;26.80;11.95;;;;;;;;;;8224462;28;20266;-59
2024/01/15 05:19:47;;;;;;;24.30;10.85;;;;;;;;;;8222015;28;20030;-59
2024/01/15 05:23:47;;;;;;;29.42;11.63;;;;;;;;;;8219073;28;20643;-59
2024/01/15 05:27:48;;;;;;;24.20;11.05;;;;;;;;;;8223085;28;20113;-60
2024/01/15 05:31:48;;;;;;;22.20;11.40;;;;;;;;;;8221170;28;20860;-59
2024/01/15 05:35:50;;;;;;;23.77;10.38;;;;;;;;;;8223539;28;20184;-59
2024/01/15 05:39:50;;;;;;;25.92;10.57;;;;;;;;;;8221420;28;20022;-60
2024/01/15 05:43:50;;;;;;;28.60;11.85;;;;;;;;;;8221259;28;20420;-60
2024/01/15 05:47:50;;;;;;;26.90;11.32;;;;;;;;;;8227831;28;20046;-59
2024/01/15 05:51:51;;;;;;;24.15;12.63;;;;;;;;;;8218507;28;20026;-59
2024/01/15 05:55:51;;;;;;;27.52;12.07;;;;;;;;;;8220047;28;21166;-59
2024/01/15 05:59:51;;;;;;;27.17;11.30;;;;;;;;;;8220802;28;22500;-59
2024/01/15 06:03:52;;;;;;;24.33;10.90;;;;;;;;;;8221083;28;20744;-60
2024/01/15 06:07:52;;;;;;;23.65;10.55;;;;;;;;;;8223448;28;20571;-60
2024/01/15 06:11:52;;;;;;;27.65;13.18;;;;;;;;;;8220987;28;20104;-59
2024/01/15 06:15:53;;;;;;;24.88;12.00;;;;;;;;;;8220296;28;21321;-60
2024/01/15 06:19:53;;;;;;;29.00;11.93;;;;;;;;;;8222063;28;22010;-58
2024/01/15 06:23:53;;;;;;;27.55;12.30;;;;;;;;;;8219512;28;20038;-56
2024/01/15 06:27:53;;;;;;;28.33;12.43;;;;;;;;;;8220378;28;20691;-58
2024/01/15 06:31:53;;;;;;;29.40;12.00;;;;;;;;;;8222254;28;21536;-58
2024/01/15 06:35:54;;;;;;;25.07;10.40;;;;;;;;;;8223666;28;20034;-58
2024/01/15 06:39:54;;;;;;;27.35;10.80;;;;;;;;;;8224149;28;20462;-59
2024/01/15 06:43:55;;;;;;;25.02;12.13;;;;;;;;;;8218562;28;20056;-58
2024/01/15 06:47:55;;;;;;;24.63;11.00;;;;;;;;;;8220825;28;21179;-58
2024/01/15 06:51:56;;;;;;;28.45;12.77;;;;;;;;;;8221236;28;20096;-60
2024/01/15 06:55:56;;;;;;;26.08;11.55;;;;;;;;;;8221001;28;23221;-58
2024/01/15 06:59:56;;;;;;;23.02;10.88;;;;;;;;;;8216877;28;20029;-57
2024/01/15 07:03:56;;;;;;;22.48;10.25;;;;;;;;;;8222042;28;20042;-59
2024/01/15 07:07:56;;;;;;;21.02;10.85;;;;;;;;;;8221438;28;20112;-59
2024/01/15 07:11:58;;;;;;;24.33;11.73;;;;;;;;;;8220603;28;20027;-59
2024/01/15 07:15:58;;;;;;;24.50;11.48;;;;;;;;;;8219278;28;20136;-60
2024/01/15 07:19:58;;;;;;;20.77;10.05;;;;;;;;;;8221154;28;20479;-60
2024/01/15 07:23:58;;;;;;;21.27;10.27;;;;;;;;;;8217768;28;20149;-60
2024/01/15 07:27:59;;;;;;;24.40;10.60;;;;;;;;;;8220798;28;20785;-59
2024/01/15 07:31:59;;;;;;;22.15;11.13;;;;;;;;;;8213724;28;20069;-58
2024/01/15 07:35:59;;;;;;;23.38;12.15;;;;;;;;;;8225288;28;20702;-58
2024/01/15 07:40:00;;;;;;;19.95;10.30;;;;;;;;;;8222240;28;20582;-59
2024/01/15 07:44:00;;;;;;;19.65;10.20;;;;;;;;;;8219560;28;20536;-57
2024/01/15 07:48:00;;;;;;;24.60;10.30;;;;;;;;;;8222217;28;20089;-58
2024/01/15 07:52:01;;;;;;;20.45;10.77;;;;;;;;;;8217861;28;20899;-58
2024/01/15 07:56:01;;;;;;;23.67;11.02;;;;;;;;;;8220289;28;20038;-59
2024/01/15 08:00:03;;;;;;;23.60;11.88;;;;;;;;;;8220524;28;20033;-59
2024/01/15 08:04:03;;;;;;;20.13;11.15;;;;;;;;;;8217461;28;20153;-59
2024/01/15 08:08:04;;;;;;;23.98;13.40;;;;;;;;;;8222483;28;20350;-59
2024/01/15 08:12:05;;;;;;;21.40;10.60;;;;;;;;;;8219072;28;20041;-59
2024/01/15 08:16:06;;;;;;;24.30;11.38;;;;;;;;;;8220451;28;20042;-65
2024/01/15 08:20:07;;;;;;;24.67;12.33;;;;;;;;;;8224030;28;20486;-59
2024/01/15 08:24:08;;;;;;;18.58;9.82;;;;;;;;;;8225778;28;20775;-58
2024/01/15 08:28:08;;;;;;;21.52;10.50;;;;;;;;;;8225759;28;20030;-58
2024/01/15 08:32:13;;;;;;;24.92;12.18;;;;;;;;;;8225870;28;20037;-59
2024/01/15 08:36:13;;;;;;;21.33;10.75;;;;;;;;;;8226839;28;20391;-58
2024/01/15 08:40:14;;;;;;;26.73;12.00;;;;;;;;;;8221829;28;20057;-59
2024/01/15 08:44:14;;;;;;;23.75;11.77;;;;;;;;;;8226135;28;20069;-62
2024/01/15 08:48:14;;;;;;;21.85;11.50;;;;;;;;;;8225616;28;20046;-59
2024/01/15 08:52:14;;;;;;;21.63;10.93;;;;;;;;;;8226021;28;20019;-58
2024/01/15 08:56:14;;;;;;;20.25;11.43;;;;;;;;;;8227569;28;20022;-58
2024/01/15 09:00:15;;;;;;;21.88;11.05;;;;;;;;;;8223492;28;20073;-59
2024/01/15 09:04:15;;;;;;;25.13;12.90;;;;;;;;;;8225560;28;20041;-58
2024/01/15 09:08:15;;;;;;;21.50;10.77;;;;;;;;;;8224538;28;20895;-59
2024/01/15 09:12:18;;;;;;;18.00;9.30;;;;;;;;;;8226237;28;20041;-58
2024/01/15 09:16:18;;;;;;;19.55;10.65;;;;;;;;;;8233000;28;20289;-58
2024/01/15 09:20:18;;;;;;;20.67;11.40;;;;;;;;;;8226537;28;20136;-59
2024/01/15 09:24:19;;;;;;;16.85;9.15;;;;;;;;;;8223741;28;20045;-58
2024/01/15 09:28:19;;;;;;;16.80;8.82;;;;;;;;;;8224313;28;20030;-58
2024/01/15 09:32:19;;;;;;;17.08;9.07;;;;;;;;;;8225042;28;20513;-59
2024/01/15 09:36:19;;;;;;;20.02;9.23;;;;;;;;;;8227457;28;20057;-59
2024/01/15 09:40:20;;;;;;;18.98;9.65;;;;;;;;;;8218190;28;20049;-58
2024/01/15 09:44:20;;;;;;;17.67;9.10;;;;;;;;;;8229688;28;20033;-58
2024/01/15 09:48:21;;;;;;;16.90;9.23;;;;;;;;;;8224848;28;20784;-60
2024/01/15 09:52:21;;;;;;;19.60;10.35;;;;;;;;;;8223073;28;20044;-60
2024/01/15 09:56:21;;;;;;;17.90;9.40;;;;;;;;;;8222297;28;20127;-60
2024/01/15 10:00:22;;;;;;;18.35;9.25;;;;;;;;;;8208057;28;20345;-59
2024/01/15 10:04:23;;;;;;;16.08;9.55;;;;;;;;;;8210502;28;20037;-60
2024/01/15 10:08:24;;;;;;;17.73;9.40;;;;;;;;;;8219965;28;20140;-60
2024/01/15 10:12:27;;;;;;;20.15;10.18;;;;;;;;;;8218260;28;20028;-60
2024/01/15 10:16:27;;;;;;;14.25;8.65;;;;;;;;;;8216533;28;20033;-60
2024/01/15 10:20:27;;;;;;;15.63;8.80;;;;;;;;;;8216821;28;20084;-60
2024/01/15 10:24:27;;;;;;;14.40;7.70;;;;;;;;;;8215584;28;20037;-59
2024/01/15 10:28:30;;;;;;;15.40;8.27;;;;;;;;;;8215477;28;20327;-59
2024/01/15 10:32:30;;;;;;;14.68;7.93;;;;;;;;;;8215737;28;20038;-60
2024/01/15 10:36:31;;;;;;;16.23;8.88;;;;;;;;;;8221659;28;20400;-58
2024/01/15 10:40:31;;;;;;;15.50;9.05;;;;;;;;;;8216259;28;20018;-59
2024/01/15 10:44:32;;;;;;;12.05;7.53;;;;;;;;;;8215073;28;20053;-58
2024/01/15 10:48:34;;;;;;;15.23;8.35;;;;;;;;;;8224116;28;20336;-60
2024/01/15 10:52:35;;;;;;;18.13;8.82;;;;;;;;;;8216605;28;20678;-60
2024/01/15 10:56:35;;;;;;;14.18;8.48;;;;;;;;;;8215902;28;20512;-58
2024/01/15 11:00:39;;;;;;;12.70;8.95;;;;;;;;;;8223951;28;20479;-59
2024/01/15 11:04:39;;;;;;;15.87;8.20;;;;;;;;;;8214526;28;20096;-59
2024/01/15 11:08:41;;;;;;;14.75;8.32;;;;;;;;;;8213327;28;20018;-59
2024/01/15 11:12:43;;;;;;;16.15;8.57;;;;;;;;;;8212476;28;20056;-59
2024/01/15 11:16:56;;;;;;;15.77;8.55;;;;;;;;;;8216614;28;20599;-58
2024/01/15 11:21:19;;;;;;;14.07;7.93;;;;;;;;;;8214882;28;20137;-58
2024/01/15 11:25:20;;;;;;;16.23;7.93;;;;;;;;;;8205092;28;20045;-59
2024/01/15 11:29:26;;;;;;;14.27;7.85;;;;;;;;;;8217185;28;20136;-59
2024/01/15 11:33:33;;;;;;;14.25;8.27;;;;;;;;;;8214068;28;20541;-59
2024/01/15 11:37:52;;;;;;;15.02;8.48;;;;;;;;;;8213937;28;20042;-60
2024/01/15 11:41:55;;;;;;;16.38;8.20;;;;;;;;;;8214282;28;20017;-60
2024/01/15 11:45:56;;;;;;;13.98;7.80;;;;;;;;;;8211643;28;20042;-59
2024/01/15 11:50:02;;;;;;;13.10;7.57;;;;;;;;;;8214308;28;20026;-59
2024/01/15 11:54:05;;;;;;;14.65;8.43;;;;;;;;;;8212104;28;20060;-59
2024/01/15 11:58:12;;;;;;;11.68;7.20;;;;;;;;;;8210296;28;20042;-58
2024/01/15 12:02:13;;;;;;;13.77;7.65;;;;;;;;;;8214207;28;20039;-60
2024/01/15 12:06:14;;;;;;;10.98;6.45;;;;;;;;;;8215434;28;20612;-59
2024/01/15 12:10:14;;;;;;;13.02;6.93;;;;;;;;;;8216087;28;20026;-59
2024/01/15 12:14:14;;;;;;;10.50;6.65;;;;;;;;;;8211708;28;20026;-59
2024/01/15 12:18:15;;;;;;;12.38;7.35;;;;;;;;;;8209085;28;20168;-59
2024/01/15 12:22:15;;;;;;;11.05;6.22;;;;;;;;;;8204997;28;20593;-59
2024/01/15 12:26:16;;;;;;;11.02;7.00;;;;;;;;;;8199361;28;20038;-60
2024/01/15 12:30:16;;;;;;;10.27;6.63;;;;;;;;;;8211564;28;20039;-58
2024/01/15 12:34:17;;;;;;;8.70;5.97;;;;;;;;;;8207891;28;20287;-59
2024/01/15 12:38:18;;;;;;;10.05;6.82;;;;;;;;;;8215191;28;20275;-59
2024/01/15 12:42:18;;;;;;;9.27;5.97;;;;;;;;;;8218624;28;20414;-59
2024/01/15 12:46:20;;;;;;;9.57;5.95;;;;;;;;;;8206425;28;20508;-59
2024/01/15 12:50:23;;;;;;;8.95;6.05;;;;;;;;;;8204509;28;20030;-60
2024/01/15 12:54:24;;;;;;;9.07;5.97;;;;;;;;;;8203955;28;20053;-59
2024/01/15 12:58:24;;;;;;;9.48;5.32;;;;;;;;;;8187444;28;20068;-59
2024/01/15 13:02:24;;;;;;;8.68;4.90;;;;;;;;;;8204627;28;20763;-60
2024/01/15 13:06:24;;;;;;;8.60;5.50;;;;;;;;;;8209445;28;20085;-60
2024/01/15 13:10:25;;;;;;;8.68;5.38;;;;;;;;;;8210149;28;20112;-60
2024/01/15 13:14:25;;;;;;;10.03;5.57;;;;;;;;;;8212539;28;20030;-60
2024/01/15 13:18:25;;;;;;;8.23;5.35;;;;;;;;;;8221069;28;20400;-60
2024/01/15 13:22:32;;;;;;;9.13;6.22;;;;;;;;;;8213585;28;20018;-59
2024/01/15 13:26:32;;;;;;;9.95;5.50;;;;;;;;;;8214505;28;20349;-60
2024/01/15 13:30:33;;;;;;;10.35;6.57;;;;;;;;;;8219474;28;20038;-60
2024/01/15 13:34:33;;;;;;;7.83;5.27;;;;;;;;;;8214290;28;20025;-59
2024/01/15 13:38:36;;;;;;;12.05;6.10;;;;;;;;;;8214580;28;20281;-59
2024/01/15 13:42:39;;;;;;;11.45;5.20;;;;;;;;;;8215705;28;20108;-60
2024/01/15 13:46:39;;;;;;;8.60;5.30;;;;;;;;;;8216718;28;20498;-60
2024/01/15 13:50:39;;;;;;;8.15;5.32;;;;;;;;;;8215275;28;20523;-60
2024/01/15 13:54:40;;;;;;;9.40;4.82;;;;;;;;;;8218165;28;20022;-59
2024/01/15 13:58:40;;;;;;;7.45;4.78;;;;;;;;;;8214312;28;20023;-60
2024/01/15 14:02:40;;;;;;;7.10;4.40;;;;;;;;;;8217624;28;20038;-60
2024/01/15 14:06:41;;;;;;;7.40;4.68;;;;;;;;;;8216126;28;20030;-60
2024/01/15 14:10:41;;;;;;;7.10;4.93;;;;;;;;;;8218735;28;20085;-60
2024/01/15 14:14:41;;;;;;;8.48;5.70;;;;;;;;;;8216702;28;20289;-60
2024/01/15 14:18:41;;;;;;;8.20;4.72;;;;;;;;;;8223161;28;20026;-59
2024/01/15 14:22:42;;;;;;;8.82;4.35;;;;;;;;;;8225378;28;20022;-58
2024/01/15 14:26:42;;;;;;;7.25;4.20;;;;;;;;;;8221332;28;20038;-59
2024/01/15 14:30:42;;;;;;;8.93;4.30;;;;;;;;;;8200331;28;20648;-58
2024/01/15 14:34:43;;;;;;;7.90;4.82;;;;;;;;;;8204013;28;20026;-59
2024/01/15 14:38:43;;;;;;;6.03;3.90;;;;;;;;;;8209421;28;20041;-59
2024/01/15 14:42:43;;;;;;;5.63;3.88;;;;;;;;;;8211596;28;20036;-58
2024/01/15 14:46:43;;;;;;;6.93;4.00;;;;;;;;;;8207248;28;20066;-58
2024/01/15 14:50:43;;;;;;;6.93;4.13;;;;;;;;;;8208625;28;20025;-59
2024/01/15 14:54:44;;;;;;;8.40;4.53;;;;;;;;;;8198519;28;20022;-57
2024/01/15 14:58:44;;;;;;;7.45;4.40;;;;;;;;;;8207976;28;20018;-58
2024/01/15 15:02:44;;;;;;;6.67;4.50;;;;;;;;;;8208654;28;20105;-58
2024/01/15 15:06:44;;;;;;;7.70;3.83;;;;;;;;;;8211702;28;20272;-62
2024/01/15 15:10:45;;;;;;;8.70;3.93;;;;;;;;;;8226451;28;20121;-57
2024/01/15 15:14:45;;;;;;;6.78;3.80;;;;;;;;;;8220023;28;20281;-58
2024/01/15 15:18:46;;;;;;;5.95;3.22;;;;;;;;;;8221198;28;20041;-58
2024/01/15 15:22:46;;;;;;;5.35;3.45;;;;;;;;;;8232581;28;20033;-58
2024/01/15 15:26:47;;;;;;;6.47;3.00;;;;;;;;;;8232036;28;20018;-60
2024/01/15 15:30:47;;;;;;;4.90;2.70;;;;;;;;;;8234241;28;20045;-59
2024/01/15 15:34:48;;;;;;;6.35;2.78;;;;;;;;;;8227440;28;20038;-60
2024/01/15 15:38:48;;;;;;;6.32;2.90;;;;;;;;;;8226953;28;20026;-59
2024/01/15 15:42:50;;;;;;;4.47;2.67;;;;;;;;;;8221837;28;20072;-59
2024/01/15 15:46:50;;;;;;;5.07;2.47;;;;;;;;;;8219120;28;20269;-60
2024/01/15 15:50:51;;;;;;;4.22;2.60;;;;;;;;;;8219581;28;20030;-62
2024/01/15 15:54:51;;;;;;;4.50;2.22;;;;;;;;;;8218778;28;21382;-59
2024/01/15 15:58:52;;;;;;;3.67;2.17;;;;;;;;;;8212224;28;20168;-59
2024/01/15 16:02:52;;;;;;;5.97;2.47;;;;;;;;;;8212906;28;21149;-59
2024/01/15 16:06:53;;;;;;;3.55;2.10;;;;;;;;;;8214823;28;20469;-59
2024/01/15 16:10:55;;;;;;;8.77;2.80;;;;;;;;;;8214643;28;20325;-59
2024/01/15 16:14:55;;;;;;;4.05;2.22;;;;;;;;;;8214085;28;21821;-58
2024/01/15 16:18:55;;;;;;;6.13;1.90;;;;;;;;;;8213419;28;21140;-59
2024/01/15 16:22:55;;;;;;;4.25;1.90;;;;;;;;;;8214176;28;20720;-58
2024/01/15 16:26:55;;;;;;;2.72;1.80;;;;;;;;;;8214045;28;20034;-57
2024/01/15 16:30:56;;;;;;;3.30;1.67;;;;;;;;;;8222188;28;20311;-59
2024/01/15 16:34:56;;;;;;;3.10;1.60;;;;;;;;;;8222701;28;20022;-59
2024/01/15 16:38:56;;;;;;;5.38;2.03;;;;;;;;;;8217732;28;20772;-59
2024/01/15 16:42:56;;;;;;;5.13;2.20;;;;;;;;;;8209660;28;20160;-61
2024/01/15 16:46:59;;;;;;;3.50;1.90;;;;;;;;;;8213853;28;20381;-60
2024/01/15 16:50:59;;;;;;;2.70;2.05;;;;;;;;;;8211527;28;20505;-58
2024/01/15 16:54:59;;;;;;;5.32;2.35;;;;;;;;;;8211715;28;20033;-59
2024/01/15 16:58:59;;;;;;;3.85;2.22;;;;;;;;;;8211474;28;20018;-60
2024/01/15 17:02:59;;;;;;;7.45;2.40;;;;;;;;;;8212147;28;20426;-59
2024/01/15 17:07:00;;;;;;;7.05;2.47;;;;;;;;;;8213583;28;20025;-60
2024/01/15 17:11:00;;;;;;;4.80;2.40;;;;;;;;;;8211436;28;20140;-59
2024/01/15 17:15:00;;;;;;;5.97;2.53;;;;;;;;;;8211402;28;20030;-60
2024/01/15 17:19:00;;;;;;;7.97;2.85;;;;;;;;;;8213434;28;20029;-60
2024/01/15 17:23:00;;;;;;;6.18;2.55;;;;;;;;;;8211117;28;20049;-60
2024/01/15 17:27:01;;;;;;;4.50;2.53;;;;;;;;;;8206797;28;20471;-60
2024/01/15 17:31:01;;;;;;;7.35;2.90;;;;;;;;;;8207692;28;20860;-60
2024/01/15 17:35:03;;;;;;;8.98;2.70;;;;;;;;;;8207037;28;20033;-60
2024/01/15 17:39:05;;;;;;;4.50;2.90;;;;;;;;;;8213505;28;20021;-59
2024/01/15 17:43:06;;;;;;;6.07;3.10;;;;;;;;;;8207940;28;20022;-59
2024/01/15 17:47:06;;;;;;;4.93;3.03;;;;;;;;;;8207310;28;20049;-60
2024/01/15 17:51:06;;;;;;;5.18;2.47;;;;;;;;;;8208122;28;20078;-59
2024/01/15 17:55:07;;;;;;;5.45;2.80;;;;;;;;;;8200444;28;20527;-59
2024/01/15 17:59:07;;;;;;;5.75;2.45;;;;;;;;;;8210594;28;20656;-60
2024/01/15 18:03:07;;;;;;;4.57;2.30;;;;;;;;;;8212938;28;20034;-60
2024/01/15 18:07:08;;;;;;;6.85;2.58;;;;;;;;;;8208082;28;20021;-59
2024/01/15 18:11:14;;;;;;;4.43;2.30;;;;;;;;;;8206129;28;20030;-59
2024/01/15 18:15:16;;;;;;;3.28;1.88;;;;;;;;;;8208206;28;20060;-60
2024/01/15 18:19:17;;;;;;;5.43;1.90;;;;;;;;;;8216479;28;20052;-59
2024/01/15 18:23:17;;;;;;;2.10;1.80;;;;;;;;;;8210486;28;20026;-58
2024/01/15 18:27:17;;;;;;;5.90;2.30;;;;;;;;;;8210186;28;20018;-59
2024/01/15 18:31:18;;;;;;;5.32;1.65;;;;;;;;;;8206006;28;20486;-59
2024/01/15 18:35:18;;;;;;;3.17;1.80;;;;;;;;;;8204181;28;20480;-59
2024/01/15 18:39:19;;;;;;;4.40;2.00;;;;;;;;;;8202874;28;20022;-59
2024/01/15 18:43:20;;;;;;;2.15;1.90;;;;;;;;;;8214635;28;20022;-60
2024/01/15 18:47:21;;;;;;;4.10;1.95;;;;;;;;;;8217793;28;20665;-59
2024/01/15 18:51:22;;;;;;;4.70;2.10;;;;;;;;;;8217393;28;20125;-58
2024/01/15 18:55:22;;;;;;;4.30;2.03;;;;;;;;;;8212539;28;20034;-58
2024/01/15 18:59:24;;;;;;;4.57;2.30;;;;;;;;;;8210739;28;20037;-58
2024/01/15 19:03:24;;;;;;;4.35;2.03;;;;;;;;;;8203745;28;20048;-59
2024/01/15 19:07:24;;;;;;;3.78;2.15;;;;;;;;;;8205237;28;20036;-59
2024/01/15 19:11:25;;;;;;;4.47;2.17;;;;;;;;;;8222240;28;20281;-59
2024/01/15 19:15:26;;;;;;;3.83;2.10;;;;;;;;;;8218173;28;20044;-58
2024/01/15 19:19:26;;;;;;;7.38;2.30;;;;;;;;;;8220100;28;20085;-59
2024/01/15 19:23:26;;;;;;;7.43;2.25;;;;;;;;;;8215130;28;20033;-59
2024/01/15 19:27:26;;;;;;;4.63;2.25;;;;;;;;;;8219435;28;20029;-60
2024/01/15 19:31:29;;;;;;;4.18;2.30;;;;;;;;;;8210612;28;20041;-58
2024/01/15 19:35:29;;;;;;;3.63;2.30;;;;;;;;;;8210444;28;22303;-59
2024/01/15 19:39:31;;;;;;;6.03;2.17;;;;;;;;;;8210691;28;20034;-59
2024/01/15 19:43:31;;;;;;;4.82;2.05;;;;;;;;;;8214846;28;20053;-60
2024/01/15 19:47:32;;;;;;;7.20;2.20;;;;;;;;;;8206168;28;20049;-59
2024/01/15 19:51:32;;;;;;;2.78;1.92;;;;;;;;;;8206656;28;20326;-59
2024/01/15 19:55:32;;;;;;;3.78;2.30;;;;;;;;;;8205403;28;20018;-59
2024/01/15 19:59:33;;;;;;;4.50;2.38;;;;;;;;;;8210757;28;20464;-58
2024/01/15 20:03:33;;;;;;;3.43;2.40;;;;;;;;;;8234522;28;20038;-60
2024/01/15 20:07:33;;;;;;;10.32;2.70;;;;;;;;;;8232539;28;20281;-59
2024/01/15 20:11:33;;;;;;;4.40;2.85;;;;;;;;;;8227982;28;20044;-60
2024/01/15 20:15:36;;;;;;;3.42;2.10;;;;;;;;;;8221004;28;20539;-59
2024/01/15 20:19:36;;;;;;;5.28;2.00;;;;;;;;;;8226346;28;20087;-60
2024/01/15 20:23:37;;;;;;;8.80;2.80;;;;;;;;;;8228666;28;20395;-60
2024/01/15 20:27:37;;;;;;;3.88;2.22;;;;;;;;;;8227990;28;20021;-59
2024/01/15 20:31:37;;;;;;;5.50;3.05;;;;;;;;;;8225081;28;20033;-60
2024/01/15 20:35:38;;;;;;;4.78;2.50;;;;;;;;;;8224762;28;20510;-58
2024/01/15 20:39:38;;;;;;;3.60;2.17;;;;;;;;;;8219071;28;20026;-59
2024/01/15 20:43:38;;;;;;;4.03;2.30;;;;;;;;;;8225210;28;20296;-59
2024/01/15 20:47:39;;;;;;;5.63;2.30;;;;;;;;;;8222159;28;20034;-59
2024/01/15 20:51:39;;;;;;;4.05;2.38;;;;;;;;;;8222393;28;20434;-60
2024/01/15 20:55:39;;;;;;;4.28;2.20;;;;;;;;;;8212376;28;20051;-60
2024/01/15 20:59:39;;;;;;;4.88;2.63;;;;;;;;;;8214699;28;20054;-57
2024/01/15 21:03:39;;;;;;;3.97;2.53;;;;;;;;;;8230322;28;20042;-59
2024/01/15 21:07:39;;;;;;;4.15;2.25;;;;;;;;;;8222763;28;20459;-60
2024/01/15 21:11:40;;;;;;;4.75;2.72;;;;;;;;;;8215546;28;20602;-59
2024/01/15 21:15:40;;;;;;;4.80;2.38;;;;;;;;;;8229046;28;20054;-58
2024/01/15 21:19:40;;;;;;;5.03;2.90;;;;;;;;;;8229668;28;20034;-59
2024/01/15 21:23:40;;;;;;;5.40;2.63;;;;;;;;;;8223015;28;20292;-59
2024/01/15 21:27:41;;;;;;;5.28;3.10;;;;;;;;;;8224862;28;20835;-58
2024/01/15 21:31:42;;;;;;;4.85;2.70;;;;;;;;;;8224847;28;20078;-59
2024/01/15 21:35:42;;;;;;;7.70;3.22;;;;;;;;;;8224421;28;20352;-59
2024/01/15 21:39:42;;;;;;;5.47;3.03;;;;;;;;;;8221923;28;20018;-60
2024/01/15 21:43:43;;;;;;;6.45;3.13;;;;;;;;;;8224304;28;20083;-59
2024/01/15 21:47:43;;;;;;;8.30;3.20;;;;;;;;;;8214298;28;20039;-59
2024/01/15 21:51:43;;;;;;;5.45;2.67;;;;;;;;;;8211211;28;20029;-59
2024/01/15 21:55:43;;;;;;;3.70;2.92;;;;;;;;;;8208062;28;20029;-59
2024/01/15 21:59:44;;;;;;;11.77;2.78;;;;;;;;;;8198445;28;20516;-59
2024/01/15 22:03:45;;;;;;;5.72;3.13;;;;;;;;;;8204540;28;20397;-59
2024/01/15 22:07:45;;;;;;;10.98;2.92;;;;;;;;;;8203766;28;20170;-59
2024/01/15 22:11:46;;;;;;;4.47;2.83;;;;;;;;;;8202681;28;20881;-59
2024/01/15 22:15:46;;;;;;;6.22;3.33;;;;;;;;;;8206386;28;20395;-59
2024/01/15 22:19:47;;;;;;;8.15;2.75;;;;;;;;;;8209410;28;20551;-58
2024/01/15 22:23:47;;;;;;;4.70;2.70;;;;;;;;;;8222166;28;20031;-59
2024/01/15 22:27:47;;;;;;;8.10;3.40;;;;;;;;;;8221898;28;20044;-59
2024/01/15 22:31:48;;;;;;;12.27;3.47;;;;;;;;;;8214206;28;20030;-58
2024/01/15 22:35:48;;;;;;;6.40;3.33;;;;;;;;;;8210779;28;20601;-59
2024/01/15 22:39:48;;;;;;;4.43;3.50;;;;;;;;;;8206950;28;20037;-59
2024/01/15 22:43:48;;;;;;;5.78;3.17;;;;;;;;;;8211531;28;20105;-57
2024/01/15 22:47:48;;;;;;;8.52;4.05;;;;;;;;;;8210981;28;20039;-57
2024/01/15 22:51:48;;;;;;;5.57;3.30;;;;;;;;;;8208053;28;20386;-58
2024/01/15 22:55:49;;;;;;;6.07;3.45;;;;;;;;;;8211095;28;20281;-59
2024/01/15 22:59:50;;;;;;;12.43;4.10;;;;;;;;;;8209470;28;20045;-58
2024/01/15 23:03:50;;;;;;;7.18;3.42;;;;;;;;;;8207839;28;20038;-59
2024/01/15 23:07:53;;;;;;;8.60;4.05;;;;;;;;;;8208502;28;20029;-59
2024/01/15 23:11:53;;;;;;;6.72;3.72;;;;;;;;;;8214106;28;20587;-58
2024/01/15 23:15:53;;;;;;;7.90;3.55;;;;;;;;;;8205954;28;20046;-59
2024/01/15 23:19:53;;;;;;;5.03;3.25;;;;;;;;;;8205461;28;20411;-59
2024/01/15 23:23:53;;;;;;;7.53;3.65;;;;;;;;;;8209067;28;20033;-59
2024/01/15 23:27:53;;;;;;;9.23;3.80;;;;;;;;;;8209178;28;20855;-59
2024/01/15 23:31:54;;;;;;;6.38;3.90;;;;;;;;;;8215069;28;22962;-60
2024/01/15 23:35:54;;;;;;;5.03;3.10;;;;;;;;;;8221140;28;21547;-61
2024/01/15 23:39:54;;;;;;;5.65;3.58;;;;;;;;;;8220163;28;20441;-60
2024/01/15 23:43:54;;;;;;;7.03;3.63;;;;;;;;;;8208505;28;21446;-58